Time;durP1;ratioP1;P1;durP2;ratioP2;P2;SDS_P1;SDS_P2;PMS_P1;PMS_P2;Temp;Humidity;BMP_temperature;BMP_pressure;BME280_temperature;BME280_humidity;BME280_pressure;Samples;Min_cycle;Max_cycle;Signal;HPM_P1;HPM_P2
2021/04/09 00:01:49;;;;;;;;;;;-0.80;99.90;;;;;;5052389;28;19987;-73
2021/04/09 00:04:14;;;;;;;;;;;-0.80;99.90;;;;;;5053010;28;19970;-73
2021/04/09 00:06:40;;;;;;;;;;;-0.80;99.90;;;;;;5054945;28;20366;-73
2021/04/09 00:09:06;;;;;;;;;;;-0.80;99.90;;;;;;5053062;28;19913;-73
2021/04/09 00:11:32;;;;;;;;;;;-0.80;99.90;;;;;;5052927;28;20407;-73
2021/04/09 00:13:57;;;;;;;;;;;-0.80;99.90;;;;;;5053043;28;19944;-73
2021/04/09 00:16:23;;;;;;;;;;;-0.90;99.90;;;;;;5052004;28;19913;-73
2021/04/09 00:18:48;;;;;;;;;;;-0.90;99.90;;;;;;5052713;28;19909;-73
2021/04/09 00:21:14;;;;;;;;;;;-0.90;99.90;;;;;;5052525;28;19909;-73
2021/04/09 00:23:39;;;;;;;;;;;-0.90;99.90;;;;;;5052707;28;20259;-73
2021/04/09 00:26:05;;;;;;;;;;;-0.90;99.90;;;;;;5051583;28;19915;-73
2021/04/09 00:28:30;;;;;;;;;;;-1.00;99.90;;;;;;5052680;28;19912;-73
2021/04/09 00:30:56;;;;;;;;;;;-1.00;99.90;;;;;;5051447;28;19908;-73
2021/04/09 00:33:21;;;;;;;;;;;-1.00;99.90;;;;;;5052540;28;19909;-73
2021/04/09 00:35:47;;;;;;;;;;;-1.00;99.90;;;;;;5056248;28;19916;-73
2021/04/09 00:38:12;;;;;;;;;;;-1.10;99.90;;;;;;5058453;28;20004;-73
2021/04/09 00:40:39;;;;;;;;;;;-1.10;99.90;;;;;;5052661;28;20285;-73
2021/04/09 00:43:07;;;;;;;;;;;-1.10;99.90;;;;;;5052472;28;20328;-73
2021/04/09 00:45:33;;;;;;;;;;;-1.10;99.90;;;;;;5052177;28;19913;-73
2021/04/09 00:47:59;;;;;;;;;;;-1.10;99.90;;;;;;5051190;28;19919;-73
2021/04/09 00:50:24;;;;;;;;;;;-1.10;99.90;;;;;;5050664;28;19909;-73
2021/04/09 00:52:50;;;;;;;;;;;-1.20;99.90;;;;;;5052616;28;19915;-73
2021/04/09 00:55:15;;;;;;;;;;;-1.20;99.90;;;;;;5052275;28;19909;-73
2021/04/09 00:57:42;;;;;;;;;;;-1.20;99.90;;;;;;5051103;28;19931;-73
2021/04/09 01:00:09;;;;;;;;;;;-1.10;99.90;;;;;;5051961;28;19909;-73
2021/04/09 01:02:34;;;;;;;;;;;-1.10;99.90;;;;;;5051696;28;19908;-73
2021/04/09 01:05:00;;;;;;;;;;;-1.10;99.90;;;;;;5051708;28;19963;-73
2021/04/09 01:07:26;;;;;;;;;;;-1.10;99.90;;;;;;5068147;28;19961;-73
2021/04/09 01:09:52;;;;;;;;;;;-1.10;99.90;;;;;;5071388;28;20388;-73
2021/04/09 01:12:17;;;;;;;;;;;-1.10;99.90;;;;;;5071516;28;19908;-72
2021/04/09 01:14:43;;;;;;;;;;;-1.10;99.90;;;;;;5071604;28;19912;-72
2021/04/09 01:17:31;;;;;;;;;;;-1.20;99.90;;;;;;5069005;28;19908;-72
2021/04/09 01:20:18;;;;;;;;;;;-1.20;99.90;;;;;;5071527;28;20328;-72
2021/04/09 01:23:03;;;;;;;;;;;-1.20;99.90;;;;;;5071598;28;19912;-72
2021/04/09 01:25:35;;;;;;;;;;;-1.30;99.90;;;;;;5070634;28;19909;-71
2021/04/09 01:28:06;;;;;;;;;;;-1.30;99.90;;;;;;5071037;28;19931;-72
2021/04/09 01:30:53;;;;;;;;;;;-1.30;99.90;;;;;;5066966;28;19912;-72
2021/04/09 01:33:39;;;;;;;;;;;-1.40;99.90;;;;;;5071184;28;19908;-72
2021/04/09 01:36:25;;;;;;;;;;;-1.50;99.90;;;;;;5063365;28;19934;-72
2021/04/09 01:39:00;;;;;;;;;;;-1.50;99.90;;;;;;5070889;28;19915;-72
2021/04/09 01:41:26;;;;;;;;;;;-1.50;99.90;;;;;;5071215;28;20355;-71
2021/04/09 01:43:53;;;;;;;;;;;-1.60;99.90;;;;;;5070102;28;19915;-72
2021/04/09 01:46:18;;;;;;;;;;;-1.50;99.90;;;;;;5069574;28;19912;-72
2021/04/09 01:48:45;;;;;;;;;;;-1.60;99.90;;;;;;5070350;28;19958;-72
2021/04/09 01:51:13;;;;;;;;;;;-1.60;99.90;;;;;;5070788;28;19934;-72
2021/04/09 01:53:41;;;;;;;;;;;-1.60;99.90;;;;;;5071106;28;19977;-71
2021/04/09 01:56:08;;;;;;;;;;;-1.60;99.90;;;;;;5069869;28;19943;-72
2021/04/09 01:58:35;;;;;;;;;;;-1.60;99.90;;;;;;5070901;28;19920;-72
2021/04/09 02:01:01;;;;;;;;;;;-1.60;99.90;;;;;;5070946;28;19920;-72
2021/04/09 02:03:27;;;;;;;;;;;-1.60;99.90;;;;;;5070825;28;19909;-71
2021/04/09 02:05:53;;;;;;;;;;;-1.60;99.90;;;;;;5063433;28;20404;-71
2021/04/09 02:08:20;;;;;;;;;;;-1.60;99.90;;;;;;5069191;28;19943;-72
2021/04/09 02:10:46;;;;;;;;;;;-1.70;99.90;;;;;;5070863;28;19909;-71
2021/04/09 02:13:12;;;;;;;;;;;-1.70;99.90;;;;;;5070700;28;19908;-72
2021/04/09 02:15:38;;;;;;;;;;;-1.70;99.90;;;;;;5070171;28;20186;-72
2021/04/09 02:18:04;;;;;;;;;;;-1.70;99.90;;;;;;5070383;28;19913;-72
2021/04/09 02:20:30;;;;;;;;;;;-1.70;99.90;;;;;;5070372;28;19909;-72
2021/04/09 02:22:55;;;;;;;;;;;-1.70;99.90;;;;;;5069446;28;19909;-72
2021/04/09 02:25:22;;;;;;;;;;;-1.80;99.90;;;;;;5071897;28;19916;-71
2021/04/09 02:27:48;;;;;;;;;;;-1.80;99.90;;;;;;5073609;28;19909;-71
2021/04/09 02:30:15;;;;;;;;;;;-1.80;99.90;;;;;;5074573;28;19920;-72
2021/04/09 02:32:40;;;;;;;;;;;-1.70;99.90;;;;;;5074320;28;19912;-72
2021/04/09 02:35:07;;;;;;;;;;;-1.70;99.90;;;;;;5069722;28;19909;-72
2021/04/09 02:37:33;;;;;;;;;;;-1.70;99.90;;;;;;5070582;28;19959;-72
2021/04/09 02:40:01;;;;;;;;;;;-1.60;99.90;;;;;;5074671;28;19958;-72
2021/04/09 02:42:27;;;;;;;;;;;-1.60;99.90;;;;;;5074335;28;19908;-72
2021/04/09 02:44:53;;;;;;;;;;;-1.50;99.90;;;;;;5074739;28;20050;-72
2021/04/09 02:47:22;;;;;;;;;;;-1.50;99.90;;;;;;5073299;28;19915;-72
2021/04/09 02:49:51;;;;;;;;;;;-1.50;99.90;;;;;;5074310;28;19913;-72
2021/04/09 02:52:18;;;;;;;;;;;-1.50;99.90;;;;;;5074395;28;19912;-72
2021/04/09 02:54:48;;;;;;;;;;;-1.50;99.90;;;;;;5073013;28;19919;-72
2021/04/09 02:57:14;;;;;;;;;;;-1.50;99.90;;;;;;5073032;28;20369;-72
2021/04/09 02:59:39;;;;;;;;;;;-1.60;99.90;;;;;;5074143;28;20277;-71
2021/04/09 03:02:05;;;;;;;;;;;-1.60;99.90;;;;;;5074138;28;20006;-72
2021/04/09 03:04:31;;;;;;;;;;;-1.60;99.90;;;;;;5074210;28;20014;-72
2021/04/09 03:06:57;;;;;;;;;;;-1.60;99.90;;;;;;5066473;28;19912;-72
2021/04/09 03:09:25;;;;;;;;;;;-1.70;99.90;;;;;;5073809;28;20014;-72
2021/04/09 03:11:51;;;;;;;;;;;-1.60;99.90;;;;;;5074016;28;19909;-72
2021/04/09 03:14:17;;;;;;;;;;;-1.70;99.90;;;;;;5072691;28;19909;-72
2021/04/09 03:16:47;;;;;;;;;;;-1.70;99.90;;;;;;5072829;28;19962;-72
2021/04/09 03:19:13;;;;;;;;;;;-1.70;99.90;;;;;;5074022;28;19973;-72
2021/04/09 03:21:38;;;;;;;;;;;-1.70;99.90;;;;;;5073895;28;20341;-72
2021/04/09 03:24:04;;;;;;;;;;;-1.70;99.90;;;;;;5073917;28;19908;-72
2021/04/09 03:26:30;;;;;;;;;;;-1.70;99.90;;;;;;5072640;28;20003;-72
2021/04/09 03:28:55;;;;;;;;;;;-1.70;99.90;;;;;;5073630;28;20007;-72
2021/04/09 03:31:21;;;;;;;;;;;-1.70;99.90;;;;;;5073510;28;19932;-72
2021/04/09 03:33:46;;;;;;;;;;;-1.70;99.90;;;;;;5073629;28;19958;-72
2021/04/09 03:36:12;;;;;;;;;;;-1.60;99.90;;;;;;5065745;28;20389;-72
2021/04/09 03:38:37;;;;;;;;;;;-1.60;99.90;;;;;;5072459;28;19970;-72
2021/04/09 03:41:02;;;;;;;;;;;-1.50;99.90;;;;;;5073639;28;19930;-71
2021/04/09 03:43:28;;;;;;;;;;;-1.60;99.90;;;;;;5079481;28;19909;-73
2021/04/09 03:45:53;;;;;;;;;;;-1.50;99.90;;;;;;5078575;28;20637;-72
2021/04/09 03:48:19;;;;;;;;;;;-1.60;99.90;;;;;;5074874;28;20003;-72
2021/04/09 03:50:44;;;;;;;;;;;-1.60;99.90;;;;;;5073306;28;20025;-72
2021/04/09 03:53:10;;;;;;;;;;;-1.60;99.90;;;;;;5073244;28;20424;-72
2021/04/09 03:55:35;;;;;;;;;;;-1.60;99.90;;;;;;5071412;28;19917;-71
2021/04/09 03:58:01;;;;;;;;;;;-1.60;99.90;;;;;;5072862;28;19909;-72
2021/04/09 04:00:26;;;;;;;;;;;-1.60;99.90;;;;;;5073195;28;19909;-72
2021/04/09 04:02:53;;;;;;;;;;;-1.70;99.90;;;;;;5073261;28;19908;-72
2021/04/09 04:05:19;;;;;;;;;;;-1.70;99.90;;;;;;5066930;28;20428;-72
2021/04/09 04:07:44;;;;;;;;;;;-1.70;99.90;;;;;;5071479;28;19908;-72
2021/04/09 04:10:10;;;;;;;;;;;-1.80;99.90;;;;;;5072985;28;20053;-72
2021/04/09 04:12:36;;;;;;;;;;;-1.80;99.90;;;;;;5071515;28;19913;-72
2021/04/09 04:15:02;;;;;;;;;;;-1.80;99.90;;;;;;5072968;28;19916;-72
2021/04/09 04:17:27;;;;;;;;;;;-1.80;99.90;;;;;;5070337;28;19908;-72
2021/04/09 04:19:53;;;;;;;;;;;-1.90;99.90;;;;;;5073166;28;20003;-72
2021/04/09 04:22:18;;;;;;;;;;;-1.80;99.90;;;;;;5072469;28;19915;-72
2021/04/09 04:24:44;;;;;;;;;;;-1.80;99.90;;;;;;5071185;28;19913;-72
2021/04/09 04:27:09;;;;;;;;;;;-1.90;99.90;;;;;;5071642;28;19909;-72
2021/04/09 04:29:35;;;;;;;;;;;-1.90;99.90;;;;;;5072328;28;19959;-71
2021/04/09 04:32:00;;;;;;;;;;;-1.80;99.90;;;;;;5072465;28;19913;-72
2021/04/09 04:34:26;;;;;;;;;;;-1.90;99.90;;;;;;5071431;28;19956;-72
2021/04/09 04:36:51;;;;;;;;;;;-1.90;99.90;;;;;;5064865;28;20415;-72
2021/04/09 04:39:17;;;;;;;;;;;-1.90;99.90;;;;;;5072220;28;19908;-72
2021/04/09 04:41:44;;;;;;;;;;;-1.90;99.90;;;;;;5072208;28;19961;-72
2021/04/09 04:44:10;;;;;;;;;;;-1.90;99.90;;;;;;5071099;28;20366;-72
2021/04/09 04:46:36;;;;;;;;;;;-1.90;99.90;;;;;;5071236;28;19908;-72
2021/04/09 04:49:02;;;;;;;;;;;-1.80;99.90;;;;;;5071818;28;19998;-72
2021/04/09 04:51:27;;;;;;;;;;;-1.90;99.90;;;;;;5072066;28;19936;-72
2021/04/09 04:53:53;;;;;;;;;;;-1.90;99.90;;;;;;5070744;28;19912;-72
2021/04/09 04:56:18;;;;;;;;;;;-1.80;99.90;;;;;;5071282;28;19908;-71
2021/04/09 04:58:44;;;;;;;;;;;-1.80;99.90;;;;;;5072282;28;19915;-72
2021/04/09 05:01:09;;;;;;;;;;;-1.80;99.90;;;;;;5072160;28;19908;-72
2021/04/09 05:03:35;;;;;;;;;;;-1.80;99.90;;;;;;5071883;28;19952;-72
2021/04/09 05:06:00;;;;;;;;;;;-1.80;99.90;;;;;;5063282;28;19954;-71
2021/04/09 05:08:26;;;;;;;;;;;-1.70;99.90;;;;;;5071320;28;19912;-72
2021/04/09 05:10:51;;;;;;;;;;;-1.70;99.90;;;;;;5071985;28;19908;-72
2021/04/09 05:13:17;;;;;;;;;;;-1.70;99.90;;;;;;5072003;28;20375;-72
2021/04/09 05:15:42;;;;;;;;;;;-1.70;99.90;;;;;;5070588;28;20461;-72
2021/04/09 05:18:08;;;;;;;;;;;-1.60;99.90;;;;;;5071757;28;19908;-72
2021/04/09 05:20:33;;;;;;;;;;;-1.50;99.90;;;;;;5071800;28;19912;-72
2021/04/09 05:22:59;;;;;;;;;;;-1.50;99.90;;;;;;5071201;28;20010;-72
2021/04/09 05:25:24;;;;;;;;;;;-1.40;99.90;;;;;;5071476;28;19972;-72
2021/04/09 05:27:50;;;;;;;;;;;-1.40;99.90;;;;;;5070815;28;19909;-72
2021/04/09 05:30:16;;;;;;;;;;;-1.30;99.90;;;;;;5071310;28;20403;-72
2021/04/09 05:32:41;;;;;;;;;;;-1.30;99.90;;;;;;5070246;28;19908;-72
2021/04/09 05:35:07;;;;;;;;;;;-1.30;99.90;;;;;;5066525;28;19962;-72
2021/04/09 05:37:32;;;;;;;;;;;-1.20;99.90;;;;;;5068557;28;19966;-72
2021/04/09 05:39:58;;;;;;;;;;;-1.10;99.90;;;;;;5071208;28;20419;-73
2021/04/09 05:42:23;;;;;;;;;;;-1.00;99.90;;;;;;5071119;28;19987;-75
2021/04/09 05:44:49;;;;;;;;;;;-0.80;99.90;;;;;;5071406;28;19969;-72
2021/04/09 05:47:14;;;;;;;;;;;-0.60;99.90;;;;;;5070668;28;19908;-73
2021/04/09 05:49:40;;;;;;;;;;;-0.50;99.90;;;;;;5071177;28;20258;-74
2021/04/09 05:52:06;;;;;;;;;;;-0.30;99.90;;;;;;5070758;28;20030;-72
2021/04/09 05:54:32;;;;;;;;;;;-0.10;99.90;;;;;;5071101;28;20565;-72
2021/04/09 05:56:59;;;;;;;;;;;0.00;99.90;;;;;;5070100;28;19978;-72
2021/04/09 05:59:24;;;;;;;;;;;0.20;99.90;;;;;;5070532;28;19951;-73
2021/04/09 06:01:50;;;;;;;;;;;0.30;99.90;;;;;;5070873;28;19962;-75
2021/04/09 06:04:15;;;;;;;;;;;0.50;99.90;;;;;;5071907;28;19909;-72
2021/04/09 06:06:41;;;;;;;;;;;0.60;99.90;;;;;;5064629;28;20331;-72
2021/04/09 06:09:06;;;;;;;;;;;0.70;99.90;;;;;;5070978;28;19916;-74
2021/04/09 06:11:32;;;;;;;;;;;0.90;99.90;;;;;;5070779;28;20278;-72
2021/04/09 06:13:58;;;;;;;;;;;1.10;99.90;;;;;;5071017;28;20424;-72
2021/04/09 06:16:23;;;;;;;;;;;1.20;99.90;;;;;;5070895;28;19953;-72
2021/04/09 06:18:49;;;;;;;;;;;1.30;99.90;;;;;;5071891;28;19999;-73
2021/04/09 06:21:14;;;;;;;;;;;1.50;99.90;;;;;;5070667;28;19962;-73
2021/04/09 06:23:40;;;;;;;;;;;1.60;99.90;;;;;;5070930;28;19909;-72
2021/04/09 06:26:05;;;;;;;;;;;1.80;99.90;;;;;;5069909;28;20316;-73
2021/04/09 06:28:31;;;;;;;;;;;1.90;99.90;;;;;;5070596;28;19919;-73
2021/04/09 06:30:57;;;;;;;;;;;2.10;99.90;;;;;;5070993;28;19908;-73
2021/04/09 06:33:22;;;;;;;;;;;2.20;99.90;;;;;;5070935;28;20309;-72
2021/04/09 06:35:48;;;;;;;;;;;2.30;99.90;;;;;;5063511;28;20370;-72
2021/04/09 06:38:13;;;;;;;;;;;2.50;99.90;;;;;;5070372;28;19909;-72
2021/04/09 06:40:40;;;;;;;;;;;2.70;99.90;;;;;;5070791;28;20281;-73
2021/04/09 06:43:06;;;;;;;;;;;2.80;99.90;;;;;;5070740;28;19915;-73
2021/04/09 06:45:31;;;;;;;;;;;3.00;99.90;;;;;;5070521;28;19909;-74
2021/04/09 06:47:57;;;;;;;;;;;3.20;99.90;;;;;;5069551;28;19908;-72
2021/04/09 06:50:23;;;;;;;;;;;3.40;99.90;;;;;;5070693;28;19912;-72
2021/04/09 06:52:49;;;;;;;;;;;3.60;99.90;;;;;;5070134;28;19966;-73
2021/04/09 06:55:18;;;;;;;;;;;3.80;99.90;;;;;;5070921;28;20270;-73
2021/04/09 06:57:45;;;;;;;;;;;4.00;99.90;;;;;;5069684;28;19919;-73
2021/04/09 07:00:11;;;;;;;;;;;4.20;99.90;;;;;;5070725;28;19913;-73
2021/04/09 07:02:37;;;;;;;;;;;4.40;99.90;;;;;;5070624;28;19908;-73
2021/04/09 07:05:03;;;;;;;;;;;4.60;99.90;;;;;;5066262;28;20259;-73
2021/04/09 07:07:29;;;;;;;;;;;4.90;99.90;;;;;;5067619;28;19908;-73
2021/04/09 07:09:54;;;;;;;;;;;5.10;99.90;;;;;;5070443;28;19919;-73
2021/04/09 07:12:20;;;;;;;;;;;5.30;99.90;;;;;;5072994;28;19915;-73
2021/04/09 07:14:49;;;;;;;;;;;5.50;99.90;;;;;;5074166;28;19912;-73
2021/04/09 07:17:28;;;;;;;;;;;5.70;99.90;;;;;;5071881;28;20357;-73
2021/04/09 07:20:12;;;;;;;;;;;6.00;99.90;;;;;;5074069;28;19909;-73
2021/04/09 07:22:38;;;;;;;;;;;6.30;99.80;;;;;;5073701;28;20335;-73
2021/04/09 07:25:11;;;;;;;;;;;6.70;99.70;;;;;;5073929;28;20086;-73
2021/04/09 07:27:37;;;;;;;;;;;6.90;99.10;;;;;;5072755;28;19915;-74
2021/04/09 07:30:03;;;;;;;;;;;7.20;98.10;;;;;;5073690;28;19927;-75
2021/04/09 07:32:29;;;;;;;;;;;7.40;96.90;;;;;;5073772;28;19954;-74
2021/04/09 07:34:55;;;;;;;;;;;7.70;96.50;;;;;;5061569;28;19955;-74
2021/04/09 07:37:21;;;;;;;;;;;7.90;95.30;;;;;;5066478;28;19964;-75
2021/04/09 07:39:51;;;;;;;;;;;8.10;95.40;;;;;;5065095;28;19912;-75
2021/04/09 07:42:17;;;;;;;;;;;8.30;94.40;;;;;;5063182;28;19963;-73
2021/04/09 07:44:43;;;;;;;;;;;8.40;92.40;;;;;;5070633;28;19912;-76
2021/04/09 07:47:12;;;;;;;;;;;8.50;90.30;;;;;;5072498;28;20012;-73
2021/04/09 07:49:38;;;;;;;;;;;8.60;85.70;;;;;;5071853;28;19912;-73
2021/04/09 07:52:10;;;;;;;;;;;8.60;85.90;;;;;;5069423;28;19928;-73
2021/04/09 07:54:35;;;;;;;;;;;8.70;87.00;;;;;;5073431;28;19909;-73
2021/04/09 07:57:01;;;;;;;;;;;8.80;87.10;;;;;;5072185;28;20415;-74
2021/04/09 07:59:41;;;;;;;;;;;8.90;85.90;;;;;;5073380;28;19942;-73
2021/04/09 08:02:08;;;;;;;;;;;9.00;85.90;;;;;;5073297;28;19924;-73
2021/04/09 08:04:36;;;;;;;;;;;9.10;83.90;;;;;;5072969;28;20340;-73
2021/04/09 08:07:02;;;;;;;;;;;9.20;85.30;;;;;;5066942;28;19947;-73
2021/04/09 08:09:27;;;;;;;;;;;9.20;82.40;;;;;;5072690;28;19956;-74
2021/04/09 08:11:53;;;;;;;;;;;9.30;84.80;;;;;;5072966;28;20339;-73
2021/04/09 08:14:23;;;;;;;;;;;9.40;83.10;;;;;;5073259;28;20152;-73
2021/04/09 08:16:49;;;;;;;;;;;9.40;82.20;;;;;;5072186;28;20186;-73
2021/04/09 08:19:22;;;;;;;;;;;9.40;82.30;;;;;;5072900;28;19909;-74
2021/04/09 08:21:58;;;;;;;;;;;9.40;83.80;;;;;;5072656;28;19953;-74
2021/04/09 08:24:26;;;;;;;;;;;9.40;81.30;;;;;;5072011;28;19909;-75
2021/04/09 08:26:52;;;;;;;;;;;9.40;79.80;;;;;;5071826;28;20295;-75
2021/04/09 08:29:18;;;;;;;;;;;9.30;80.10;;;;;;5072666;28;19916;-76
2021/04/09 08:31:44;;;;;;;;;;;9.30;81.70;;;;;;5072443;28;19923;-75
2021/04/09 08:34:10;;;;;;;;;;;9.30;81.00;;;;;;5072064;28;19913;-75
2021/04/09 08:36:40;;;;;;;;;;;9.30;80.30;;;;;;5070931;28;19924;-75
2021/04/09 08:39:08;;;;;;;;;;;9.30;82.50;;;;;;5072558;28;20370;-73
2021/04/09 08:41:35;;;;;;;;;;;9.30;81.10;;;;;;5067082;28;19923;-74
2021/04/09 08:44:01;;;;;;;;;;;9.30;82.70;;;;;;5063149;28;20010;-73
2021/04/09 08:46:26;;;;;;;;;;;9.40;79.90;;;;;;5071321;28;19999;-73
2021/04/09 08:48:52;;;;;;;;;;;9.40;81.80;;;;;;5072424;28;19919;-73
2021/04/09 08:51:22;;;;;;;;;;;9.40;80.60;;;;;;5072388;28;19929;-76
2021/04/09 08:53:47;;;;;;;;;;;9.50;80.70;;;;;;5071798;28;19908;-73
2021/04/09 08:56:13;;;;;;;;;;;9.50;77.90;;;;;;5071087;28;19999;-73
2021/04/09 08:58:45;;;;;;;;;;;9.60;78.20;;;;;;5072060;28;20365;-75
2021/04/09 09:01:12;;;;;;;;;;;9.60;78.60;;;;;;5072331;28;20265;-73
2021/04/09 09:03:38;;;;;;;;;;;9.70;77.00;;;;;;5072588;28;20004;-73
2021/04/09 09:06:04;;;;;;;;;;;9.80;78.20;;;;;;5064715;28;20031;-73
2021/04/09 09:08:42;;;;;;;;;;;9.80;75.90;;;;;;5081949;28;19908;-74
2021/04/09 09:11:07;;;;;;;;;;;9.80;76.90;;;;;;5092295;28;20459;-73
2021/04/09 09:13:40;;;;;;;;;;;9.90;78.70;;;;;;5092261;28;19943;-74
2021/04/09 09:16:13;;;;;;;;;;;10.00;75.40;;;;;;5091025;28;19908;-74
2021/04/09 09:18:38;;;;;;;;;;;10.10;75.60;;;;;;5092226;28;19908;-76
2021/04/09 09:21:20;;;;;;;;;;;10.20;74.70;;;;;;5092115;28;19915;-73
2021/04/09 09:23:51;;;;;;;;;;;10.30;75.30;;;;;;5091801;28;20373;-74
2021/04/09 09:26:28;;;;;;;;;;;10.30;74.90;;;;;;5090982;28;20286;-74
2021/04/09 09:29:08;;;;;;;;;;;10.40;75.70;;;;;;5091678;28;20383;-73
2021/04/09 09:31:35;;;;;;;;;;;10.50;75.60;;;;;;5091978;28;19962;-73
2021/04/09 09:34:19;;;;;;;;;;;10.50;74.10;;;;;;5090153;28;19908;-73
2021/04/09 09:37:07;;;;;;;;;;;10.60;74.10;;;;;;5071610;28;19999;-73
2021/04/09 09:39:52;;;;;;;;;;;10.70;73.90;;;;;;5090062;28;20003;-74
2021/04/09 09:42:20;;;;;;;;;;;10.90;72.70;;;;;;5091687;28;20381;-76
2021/04/09 09:45:01;;;;;;;;;;;11.10;71.60;;;;;;5091781;28;19908;-74
2021/04/09 09:47:27;;;;;;;;;;;11.20;72.50;;;;;;5090663;28;19908;-74
2021/04/09 09:52:46;;;;;;;;;;;11.30;71.50;;;;;;5091482;28;19908;-76
2021/04/09 09:55:15;;;;;;;;;;;11.40;70.80;;;;;;5091680;28;20273;-75
2021/04/09 09:57:42;;;;;;;;;;;11.60;70.60;;;;;;5090477;28;20285;-74
2021/04/09 10:00:08;;;;;;;;;;;11.70;69.30;;;;;;5091475;28;19912;-74
2021/04/09 10:02:33;;;;;;;;;;;11.70;69.30;;;;;;5091616;28;20526;-73
2021/04/09 10:04:59;;;;;;;;;;;11.70;72.00;;;;;;5087788;28;20003;-73
2021/04/09 10:07:25;;;;;;;;;;;11.80;70.80;;;;;;5069585;28;19913;-74
2021/04/09 10:09:53;;;;;;;;;;;12.00;72.00;;;;;;5071214;28;19986;-75
2021/04/09 10:12:22;;;;;;;;;;;12.10;70.80;;;;;;5070972;28;19908;-74
2021/04/09 10:14:48;;;;;;;;;;;12.10;71.50;;;;;;5071136;28;20329;-74
2021/04/09 10:17:14;;;;;;;;;;;12.20;69.30;;;;;;5070097;28;19919;-74
2021/04/09 10:19:55;;;;;;;;;;;12.30;71.20;;;;;;5071246;28;19908;-74
2021/04/09 10:22:20;;;;;;;;;;;12.30;70.40;;;;;;5070787;28;19908;-74
2021/04/09 10:24:46;;;;;;;;;;;12.40;71.40;;;;;;5070985;28;20281;-74
2021/04/09 10:27:12;;;;;;;;;;;12.50;69.70;;;;;;5069834;28;19951;-74
2021/04/09 10:29:38;;;;;;;;;;;12.50;67.70;;;;;;5070933;28;19999;-74
2021/04/09 10:32:05;;;;;;;;;;;12.60;70.30;;;;;;5070831;28;19913;-73
2021/04/09 10:34:32;;;;;;;;;;;12.80;69.30;;;;;;5070826;28;19912;-77
2021/04/09 10:36:58;;;;;;;;;;;12.80;69.70;;;;;;5083866;28;19955;-74
2021/04/09 10:39:25;;;;;;;;;;;12.90;70.00;;;;;;5090985;28;19937;-74
2021/04/09 10:41:51;;;;;;;;;;;12.90;68.10;;;;;;5091164;28;19916;-77
2021/04/09 10:44:18;;;;;;;;;;;13.00;70.10;;;;;;5091118;28;19908;-74
2021/04/09 10:46:50;;;;;;;;;;;13.10;69.90;;;;;;5091562;28;19915;-74
2021/04/09 10:49:17;;;;;;;;;;;13.20;67.20;;;;;;5094983;28;20006;-73
2021/04/09 10:51:47;;;;;;;;;;;13.20;67.80;;;;;;5095005;28;19954;-75
2021/04/09 10:54:14;;;;;;;;;;;13.10;68.10;;;;;;5094680;28;19969;-74
2021/04/09 10:56:41;;;;;;;;;;;13.20;69.00;;;;;;5076262;28;19956;-74
2021/04/09 10:59:08;;;;;;;;;;;13.30;67.50;;;;;;5070902;28;20376;-74
2021/04/09 11:01:34;;;;;;;;;;;13.40;68.10;;;;;;5066689;28;20010;-74
2021/04/09 11:04:00;;;;;;;;;;;13.60;67.30;;;;;;5074460;28;20340;-74
2021/04/09 11:06:26;;;;;;;;;;;13.70;66.10;;;;;;5074365;28;19958;-74
2021/04/09 11:09:05;;;;;;;;;;;13.70;65.60;;;;;;5069471;28;19916;-74
2021/04/09 11:11:32;;;;;;;;;;;13.80;64.50;;;;;;5056826;28;20423;-74
2021/04/09 11:14:06;;;;;;;;;;;13.80;62.90;;;;;;5071448;28;19909;-75
2021/04/09 11:16:46;;;;;;;;;;;13.90;64.60;;;;;;5070344;28;20289;-74
2021/04/09 11:19:22;;;;;;;;;;;14.00;64.80;;;;;;5071879;28;19962;-74
2021/04/09 11:21:51;;;;;;;;;;;14.30;65.30;;;;;;5072029;28;19909;-74
2021/04/09 11:24:24;;;;;;;;;;;14.40;63.80;;;;;;5072411;28;20263;-74
2021/04/09 11:26:50;;;;;;;;;;;14.60;64.20;;;;;;5071753;28;19962;-77
2021/04/09 11:29:23;;;;;;;;;;;14.80;62.40;;;;;;5073676;28;20015;-75
2021/04/09 11:31:49;;;;;;;;;;;15.00;61.90;;;;;;5073706;28;19999;-74
2021/04/09 11:34:16;;;;;;;;;;;15.10;58.80;;;;;;5073775;28;19951;-74
2021/04/09 11:36:49;;;;;;;;;;;15.10;55.80;;;;;;5066306;28;19917;-74
2021/04/09 11:39:18;;;;;;;;;;;15.20;57.00;;;;;;5073066;28;19913;-74
2021/04/09 11:41:45;;;;;;;;;;;15.30;56.90;;;;;;5073732;28;19908;-74
2021/04/09 11:44:24;;;;;;;;;;;15.40;56.00;;;;;;5073376;28;19961;-75
2021/04/09 11:46:50;;;;;;;;;;;15.50;57.50;;;;;;5072742;28;19999;-74
2021/04/09 11:49:15;;;;;;;;;;;15.90;55.80;;;;;;5072546;28;19999;-74
2021/04/09 11:51:41;;;;;;;;;;;16.40;57.30;;;;;;5073520;28;20369;-74
2021/04/09 11:54:10;;;;;;;;;;;17.00;54.00;;;;;;5073175;28;19908;-75
2021/04/09 11:56:46;;;;;;;;;;;17.30;52.40;;;;;;5072295;28;19909;-74
2021/04/09 11:59:19;;;;;;;;;;;17.30;51.80;;;;;;5070777;28;20208;-74
2021/04/09 12:01:45;;;;;;;;;;;17.50;52.00;;;;;;5073154;28;19917;-76
2021/04/09 12:04:29;;;;;;;;;;;17.70;49.20;;;;;;5073026;28;19917;-78
2021/04/09 12:06:55;;;;;;;;;;;17.90;51.00;;;;;;5065850;28;19913;-76
2021/04/09 12:09:20;;;;;;;;;;;18.20;51.50;;;;;;5072294;28;20385;-74
2021/04/09 12:11:46;;;;;;;;;;;18.40;47.80;;;;;;5073023;28;20042;-74
2021/04/09 12:14:11;;;;;;;;;;;18.40;49.60;;;;;;5073048;28;19915;-74
2021/04/09 12:16:36;;;;;;;;;;;18.30;48.70;;;;;;5071897;28;19915;-74
2021/04/09 12:19:02;;;;;;;;;;;18.10;48.50;;;;;;5072879;28;20246;-74
2021/04/09 12:21:27;;;;;;;;;;;17.80;49.00;;;;;;5072670;28;19909;-74
2021/04/09 12:23:53;;;;;;;;;;;17.70;50.20;;;;;;5072328;28;19948;-77
2021/04/09 12:26:18;;;;;;;;;;;17.40;48.00;;;;;;5071595;28;19908;-74
2021/04/09 12:28:44;;;;;;;;;;;17.30;49.30;;;;;;5072641;28;19963;-72
2021/04/09 12:31:09;;;;;;;;;;;17.20;48.80;;;;;;5072697;28;19936;-72
2021/04/09 12:33:35;;;;;;;;;;;17.30;50.30;;;;;;5072364;28;19912;-72
2021/04/09 12:36:00;;;;;;;;;;;17.40;50.00;;;;;;5065334;28;19962;-72
2021/04/09 12:38:26;;;;;;;;;;;17.50;47.90;;;;;;5071738;28;19951;-72
2021/04/09 12:40:51;;;;;;;;;;;17.50;49.40;;;;;;5072432;28;19909;-76
2021/04/09 12:43:17;;;;;;;;;;;17.40;47.70;;;;;;5072269;28;19908;-72
2021/04/09 12:45:42;;;;;;;;;;;17.40;50.50;;;;;;5071478;28;19916;-72
2021/04/09 12:48:08;;;;;;;;;;;17.20;48.80;;;;;;5072145;28;20411;-76
2021/04/09 12:50:33;;;;;;;;;;;17.10;49.50;;;;;;5072213;28;20388;-72
2021/04/09 12:52:59;;;;;;;;;;;17.00;49.20;;;;;;5071750;28;19995;-74
2021/04/09 12:55:24;;;;;;;;;;;16.90;50.00;;;;;;5071979;28;19932;-75
2021/04/09 12:57:50;;;;;;;;;;;16.90;50.50;;;;;;5070965;28;19962;-76
2021/04/09 13:00:15;;;;;;;;;;;16.90;49.10;;;;;;5072093;28;20269;-75
2021/04/09 13:02:41;;;;;;;;;;;16.80;49.40;;;;;;5072098;28;19916;-74
2021/04/09 13:05:06;;;;;;;;;;;16.80;48.90;;;;;;5067047;28;19909;-74
2021/04/09 13:07:32;;;;;;;;;;;16.90;50.00;;;;;;5088198;28;19934;-78
2021/04/09 13:09:58;;;;;;;;;;;16.90;49.50;;;;;;5091664;28;19918;-74
2021/04/09 13:12:23;;;;;;;;;;;16.80;46.80;;;;;;5092031;28;19908;-74
2021/04/09 13:14:48;;;;;;;;;;;16.70;49.10;;;;;;5092071;28;19908;-75
2021/04/09 13:17:14;;;;;;;;;;;16.60;48.20;;;;;;5090878;28;19958;-76
2021/04/09 13:19:40;;;;;;;;;;;16.50;46.00;;;;;;5091844;28;20367;-75
2021/04/09 13:22:06;;;;;;;;;;;16.30;44.80;;;;;;5091681;28;19912;-74
2021/04/09 13:24:32;;;;;;;;;;;16.30;46.50;;;;;;5091556;28;20011;-74
2021/04/09 13:26:58;;;;;;;;;;;16.20;44.60;;;;;;5090757;28;19908;-74
2021/04/09 13:29:23;;;;;;;;;;;16.20;46.10;;;;;;5091645;28;19912;-74
2021/04/09 13:31:49;;;;;;;;;;;16.20;45.50;;;;;;5091488;28;19908;-75
2021/04/09 13:34:14;;;;;;;;;;;16.30;45.20;;;;;;5091491;28;19973;-76
2021/04/09 13:36:40;;;;;;;;;;;16.40;45.30;;;;;;5078306;28;20066;-74
2021/04/09 13:39:05;;;;;;;;;;;16.50;46.40;;;;;;5091675;28;19955;-74
2021/04/09 13:41:31;;;;;;;;;;;16.60;44.40;;;;;;5091568;28;19908;-76
2021/04/09 13:43:56;;;;;;;;;;;16.70;42.60;;;;;;5091459;28;20277;-74
2021/04/09 13:46:22;;;;;;;;;;;16.70;44.00;;;;;;5090744;28;19954;-74
2021/04/09 13:48:48;;;;;;;;;;;16.80;42.90;;;;;;5091378;28;20022;-74
2021/04/09 13:51:13;;;;;;;;;;;16.80;45.20;;;;;;5091286;28;20352;-75
2021/04/09 13:53:40;;;;;;;;;;;16.80;44.60;;;;;;5091305;28;19912;-74
2021/04/09 13:56:06;;;;;;;;;;;16.80;43.60;;;;;;5090231;28;19908;-74
2021/04/09 13:58:32;;;;;;;;;;;16.70;45.80;;;;;;5091287;28;20317;-74
2021/04/09 14:00:57;;;;;;;;;;;16.80;47.40;;;;;;5091378;28;19999;-75
2021/04/09 14:03:23;;;;;;;;;;;16.90;47.10;;;;;;5091096;28;20334;-75
2021/04/09 14:05:48;;;;;;;;;;;16.90;46.80;;;;;;5073310;28;20259;-74
2021/04/09 14:08:14;;;;;;;;;;;16.90;46.80;;;;;;5070209;28;19919;-75
2021/04/09 14:10:39;;;;;;;;;;;17.00;46.00;;;;;;5070827;28;20319;-78
2021/04/09 14:13:05;;;;;;;;;;;17.00;46.50;;;;;;5070922;28;19916;-75
2021/04/09 14:15:30;;;;;;;;;;;17.10;46.30;;;;;;5071008;28;20277;-76
2021/04/09 14:17:56;;;;;;;;;;;17.10;45.80;;;;;;5069824;28;19950;-75
2021/04/09 14:20:22;;;;;;;;;;;17.10;45.40;;;;;;5071135;28;19954;-75
2021/04/09 14:22:48;;;;;;;;;;;17.10;46.60;;;;;;5074089;28;19928;-78
2021/04/09 14:25:14;;;;;;;;;;;17.00;46.40;;;;;;5072569;28;19916;-75